createdAt,value
2024-01-24T00:01:40.068Z,101455.41
2024-01-24T00:04:07.880Z,101471.84
2024-01-24T00:06:39.043Z,101464.22
2024-01-24T00:09:06.069Z,101464.97
2024-01-24T00:11:33.013Z,101450.13
2024-01-24T00:13:59.974Z,101450.03
2024-01-24T00:16:28.980Z,101455.53
2024-01-24T00:18:56.607Z,101457.25
2024-01-24T00:21:23.655Z,101452.00
2024-01-24T00:23:50.618Z,101461.72
2024-01-24T00:26:17.569Z,101449.38
2024-01-24T00:28:45.016Z,101447.59
2024-01-24T00:31:11.960Z,101448.47
2024-01-24T00:33:39.901Z,101451.09
2024-01-24T00:36:07.201Z,101475.66
2024-01-24T00:38:34.269Z,101460.50
2024-01-24T00:41:01.317Z,101464.06
2024-01-24T00:43:28.404Z,101465.81
2024-01-24T00:45:55.890Z,101462.34
2024-01-24T00:48:23.406Z,101459.69
2024-01-24T00:50:50.460Z,101468.41
2024-01-24T00:53:21.727Z,101462.16
2024-01-24T00:55:49.016Z,101452.44
2024-01-24T00:58:16.049Z,101445.38
2024-01-24T01:00:43.169Z,101455.84
2024-01-24T01:03:10.363Z,101455.81
2024-01-24T01:05:39.128Z,101460.25
2024-01-24T01:08:06.975Z,101451.44
2024-01-24T01:10:34.846Z,101456.69
2024-01-24T01:13:02.166Z,101441.84
2024-01-24T01:15:29.250Z,101456.63
2024-01-24T01:17:56.351Z,101451.44
2024-01-24T01:20:23.417Z,101445.16
2024-01-24T01:22:50.409Z,101433.81
2024-01-24T01:25:17.455Z,101435.53
2024-01-24T01:27:44.525Z,101445.25
2024-01-24T01:30:11.981Z,101454.81
2024-01-24T01:32:40.157Z,101458.41
2024-01-24T01:35:08.613Z,101467.09
2024-01-24T01:37:35.617Z,101466.25
2024-01-24T01:40:02.695Z,101463.53
2024-01-24T01:42:29.987Z,101482.06
2024-01-24T01:44:56.965Z,101473.31
2024-01-24T01:47:24.437Z,101468.94
2024-01-24T01:49:52.744Z,101484.69
2024-01-24T01:52:22.589Z,101492.50
2024-01-24T01:54:51.194Z,101493.44
2024-01-24T01:57:18.387Z,101505.69
2024-01-24T01:59:46.011Z,101486.47
2024-01-24T02:02:13.132Z,101500.47
2024-01-24T02:04:40.268Z,101487.31
2024-01-24T02:07:07.325Z,101482.06
2024-01-24T02:09:35.545Z,101504.03
2024-01-24T02:12:02.610Z,101518.06
2024-01-24T02:14:29.942Z,101508.44
2024-01-24T02:16:57.046Z,101508.44
2024-01-24T02:19:24.350Z,101504.06
2024-01-24T02:21:51.429Z,101483.91
2024-01-24T02:24:18.671Z,101491.84
2024-01-24T02:26:45.730Z,101488.38
2024-01-24T02:29:15.600Z,101471.66
2024-01-24T02:31:42.626Z,101476.06
2024-01-24T02:34:09.754Z,101492.69
2024-01-24T02:36:36.782Z,101509.44
2024-01-24T02:39:04.395Z,101493.59
2024-01-24T02:41:32.995Z,101492.81
2024-01-24T02:43:59.999Z,101511.28
2024-01-24T02:46:26.935Z,101470.78
2024-01-24T02:48:53.913Z,101478.75
2024-01-24T02:51:27.952Z,101467.28
2024-01-24T02:53:54.994Z,101484.88
2024-01-24T02:56:22.035Z,101486.66
2024-01-24T02:58:49.223Z,101491.00
2024-01-24T03:01:17.399Z,101480.47
2024-01-24T03:03:45.302Z,101472.50
2024-01-24T03:06:12.704Z,101483.06
2024-01-24T03:09:00.240Z,101482.28
2024-01-24T03:11:27.493Z,101481.41
2024-01-24T03:13:54.483Z,101496.31
2024-01-24T03:16:21.855Z,101483.09
2024-01-24T03:18:50.011Z,101497.16
2024-01-24T03:21:19.159Z,101502.47
2024-01-24T03:23:46.390Z,101520.84
2024-01-24T03:26:17.499Z,101512.13
2024-01-24T03:28:44.504Z,101521.75
2024-01-24T03:31:11.666Z,101540.16
2024-01-24T03:33:39.016Z,101521.69
2024-01-24T03:36:06.365Z,101512.94
2024-01-24T03:38:34.307Z,101533.09
2024-01-24T03:41:01.848Z,101546.28
2024-01-24T03:43:28.948Z,101532.25
2024-01-24T03:45:56.052Z,101540.13
2024-01-24T03:48:23.274Z,101530.44
2024-01-24T03:50:50.386Z,101536.66
2024-01-24T03:53:17.551Z,101532.22
2024-01-24T03:55:44.539Z,101554.16
2024-01-24T03:58:11.542Z,101525.16
2024-01-24T04:00:38.594Z,101526.03
2024-01-24T04:03:05.883Z,101511.91
2024-01-24T04:05:33.471Z,101520.59
2024-01-24T04:08:00.526Z,101518.88
2024-01-24T04:10:27.527Z,101513.53
2024-01-24T04:12:54.594Z,101506.44
2024-01-24T04:15:21.698Z,101497.56
2024-01-24T04:17:48.803Z,101510.75
2024-01-24T04:20:15.849Z,101535.25
2024-01-24T04:22:43.858Z,101555.38
2024-01-24T04:25:10.845Z,101529.84
2024-01-24T04:27:38.308Z,101541.22
2024-01-24T04:30:07.157Z,101538.59
2024-01-24T04:32:34.389Z,101546.41
2024-01-24T04:35:01.476Z,101549.97
2024-01-24T04:37:28.655Z,101543.81
2024-01-24T04:39:55.787Z,101564.03
2024-01-24T04:42:22.881Z,101553.56
2024-01-24T04:44:50.300Z,101565.84
2024-01-24T04:47:17.413Z,101586.94
2024-01-24T04:49:45.986Z,101586.13
2024-01-24T04:52:16.850Z,101569.41
2024-01-24T04:54:44.181Z,101550.75
2024-01-24T04:57:11.563Z,101549.94
2024-01-24T04:59:46.200Z,101542.88
2024-01-24T05:02:21.183Z,101554.25
2024-01-24T05:04:48.733Z,101529.66
2024-01-24T05:07:16.033Z,101536.53
2024-01-24T05:09:43.047Z,101574.41
2024-01-24T05:12:11.016Z,101576.03
2024-01-24T05:14:38.120Z,101576.84
2024-01-24T05:17:05.418Z,101557.59
2024-01-24T05:19:32.975Z,101556.72
2024-01-24T05:21:59.984Z,101578.38
2024-01-24T05:24:26.971Z,101587.31
2024-01-24T05:26:53.979Z,101581.94
2024-01-24T05:29:20.957Z,101585.41
2024-01-24T05:31:48.709Z,101591.56
2024-01-24T05:34:15.797Z,101588.91
2024-01-24T05:36:43.103Z,101609.06
2024-01-24T05:39:10.503Z,101606.47
2024-01-24T05:41:37.661Z,101626.63
2024-01-24T05:44:04.794Z,101625.69
2024-01-24T05:46:32.158Z,101642.31
2024-01-24T05:49:02.123Z,101635.13
2024-01-24T05:51:29.928Z,101645.78
2024-01-24T05:53:57.005Z,101656.22
2024-01-24T05:56:24.011Z,101639.47
2024-01-24T05:58:51.094Z,101657.81
2024-01-24T06:01:18.255Z,101660.41
2024-01-24T06:03:45.373Z,101674.34
2024-01-24T06:06:12.621Z,101691.97
2024-01-24T06:08:40.107Z,101694.63
2024-01-24T06:11:07.138Z,101677.03
2024-01-24T06:13:34.258Z,101694.63
2024-01-24T06:16:01.352Z,101686.63
2024-01-24T06:18:28.401Z,101695.22
2024-01-24T06:20:55.442Z,101705.66
2024-01-24T06:23:22.424Z,101724.31
2024-01-24T06:25:49.499Z,101724.16
2024-01-24T06:28:16.969Z,101735.53
2024-01-24T06:30:43.986Z,101736.28
2024-01-24T06:33:11.055Z,101737.97
2024-01-24T06:35:39.135Z,101730.00
2024-01-24T06:38:06.149Z,101732.41
2024-01-24T06:40:33.178Z,101734.91
2024-01-24T06:43:00.539Z,101756.13
2024-01-24T06:45:27.678Z,101796.91
2024-01-24T06:47:54.746Z,101804.25
2024-01-24T06:50:21.731Z,101795.03
2024-01-24T06:52:48.713Z,101802.22
2024-01-24T06:55:18.556Z,101801.13
2024-01-24T06:57:45.821Z,101769.59
2024-01-24T07:00:13.758Z,101762.91
2024-01-24T07:02:40.787Z,101769.09
2024-01-24T07:05:08.347Z,101766.44
2024-01-24T07:07:35.495Z,101756.44
2024-01-24T07:10:02.689Z,101759.88
2024-01-24T07:12:29.772Z,101776.81
2024-01-24T07:14:57.793Z,101785.03
2024-01-24T07:17:24.952Z,101805.25
2024-01-24T07:19:52.561Z,101793.56
2024-01-24T07:22:19.786Z,101815.31
2024-01-24T07:24:46.968Z,101821.28
2024-01-24T07:27:14.029Z,101813.38
2024-01-24T07:29:41.088Z,101814.59
2024-01-24T07:32:08.061Z,101823.84
2024-01-24T07:34:37.238Z,101815.84
2024-01-24T07:37:04.890Z,101812.38
2024-01-24T07:39:32.331Z,101817.69
2024-01-24T07:41:59.446Z,101827.97
2024-01-24T07:44:27.255Z,101826.59
2024-01-24T07:46:54.550Z,101832.69
2024-01-24T07:49:22.195Z,101844.31
2024-01-24T07:51:50.520Z,101838.00
2024-01-24T07:54:22.028Z,101853.06
2024-01-24T07:56:49.219Z,101876.00
2024-01-24T07:59:17.845Z,101860.03
2024-01-24T08:01:48.166Z,101851.00
2024-01-24T08:04:16.903Z,101874.41
2024-01-24T08:06:47.329Z,101871.72
2024-01-24T08:09:15.632Z,101876.31
2024-01-24T08:11:42.968Z,101890.25
2024-01-24T08:14:10.134Z,101892.84
2024-01-24T08:16:37.377Z,101881.41
2024-01-24T08:19:04.770Z,101874.75
2024-01-24T08:21:32.207Z,101882.88
2024-01-24T08:23:59.404Z,101895.78
2024-01-24T08:26:26.393Z,101891.41
2024-01-24T08:28:53.895Z,101902.78
2024-01-24T08:31:21.151Z,101923.50
2024-01-24T08:33:51.409Z,101934.50
2024-01-24T08:36:20.400Z,101930.91
2024-01-24T08:38:47.650Z,101935.06
2024-01-24T08:41:14.703Z,101945.72
2024-01-24T08:43:41.814Z,101951.59
2024-01-24T08:46:08.883Z,101966.81
2024-01-24T08:48:35.954Z,101951.09
2024-01-24T08:51:03.091Z,101938.09
2024-01-24T08:53:30.040Z,101941.09
2024-01-24T08:55:57.322Z,101946.44
2024-01-24T08:58:24.296Z,101963.09
2024-01-24T09:00:53.004Z,101981.06
2024-01-24T09:03:20.888Z,101994.09
2024-01-24T09:05:48.312Z,101988.03
2024-01-24T09:08:18.558Z,101980.13
2024-01-24T09:10:45.835Z,101972.34
2024-01-24T09:13:14.084Z,101986.09
2024-01-24T09:15:41.406Z,102003.09
2024-01-24T09:18:09.364Z,102022.41
2024-01-24T09:20:36.661Z,102023.78
2024-01-24T09:23:03.765Z,102038.22
2024-01-24T09:25:31.914Z,102035.47
2024-01-24T09:27:59.139Z,102044.44
2024-01-24T09:30:26.579Z,102031.16
2024-01-24T09:32:53.755Z,102047.69
2024-01-24T09:35:21.017Z,102067.09
2024-01-24T09:37:48.190Z,102056.81
2024-01-24T09:40:18.388Z,102049.25
2024-01-24T09:42:46.099Z,102042.91
2024-01-24T09:45:19.043Z,102042.97
2024-01-24T09:47:49.815Z,102056.34
2024-01-24T09:50:17.461Z,102046.53
2024-01-24T09:52:47.271Z,102045.28
2024-01-24T09:55:18.741Z,102041.22
2024-01-24T09:57:49.950Z,102056.06
2024-01-24T10:00:17.747Z,102066.00
2024-01-24T10:02:47.880Z,102072.44
2024-01-24T10:05:19.142Z,102073.94
2024-01-24T10:07:46.939Z,102064.31
2024-01-24T10:10:14.939Z,102078.34
2024-01-24T10:12:45.417Z,102091.81
2024-01-24T10:15:13.140Z,102098.03
2024-01-24T10:17:44.507Z,102088.91
2024-01-24T10:20:13.405Z,102114.44
2024-01-24T10:22:43.355Z,102121.22
2024-01-24T10:25:12.225Z,102112.56
2024-01-24T10:27:40.970Z,102126.38
2024-01-24T10:30:13.389Z,102131.59
2024-01-24T10:32:45.653Z,102148.16
2024-01-24T10:35:13.708Z,102153.16
2024-01-24T10:37:43.183Z,102149.97
2024-01-24T10:40:16.455Z,102139.56
2024-01-24T10:42:44.720Z,102154.66
2024-01-24T10:45:12.216Z,102152.72
2024-01-24T10:47:41.673Z,102163.34
2024-01-24T10:50:11.127Z,102147.78
2024-01-24T10:52:40.680Z,102156.38
2024-01-24T10:55:12.527Z,102165.03
2024-01-24T10:57:44.617Z,102166.91
2024-01-24T11:00:14.704Z,102164.53
2024-01-24T11:02:43.011Z,102178.00
2024-01-24T11:05:34.900Z,102179.78
2024-01-24T11:08:10.750Z,102174.91
2024-01-24T11:10:44.015Z,102182.50
2024-01-24T11:13:13.017Z,102183.50
2024-01-24T11:15:41.770Z,102187.84
2024-01-24T11:18:22.565Z,102208.09
2024-01-24T11:20:56.640Z,102202.63
2024-01-24T11:23:46.240Z,102196.22
2024-01-24T11:26:33.989Z,102191.47
2024-01-24T11:29:14.209Z,102192.19
2024-01-24T11:31:43.598Z,102190.69
2024-01-24T11:34:13.168Z,102194.16
2024-01-24T11:36:53.516Z,102192.41
2024-01-24T11:39:31.794Z,102226.09
2024-01-24T11:42:34.858Z,102220.28
2024-01-24T11:45:24.936Z,102226.69
2024-01-24T11:47:56.016Z,102228.47
2024-01-24T11:50:23.309Z,102240.50
2024-01-24T11:52:50.595Z,102248.81
2024-01-24T11:55:17.711Z,102254.28
2024-01-24T11:57:44.716Z,102259.16
2024-01-24T12:00:15.866Z,102267.94
2024-01-24T12:02:43.113Z,102251.94
2024-01-24T12:05:11.037Z,102255.13
2024-01-24T12:07:39.154Z,102253.31
2024-01-24T12:10:09.305Z,102233.72
2024-01-24T12:12:37.407Z,102230.34
2024-01-24T12:15:05.422Z,102238.34
2024-01-24T12:17:38.669Z,102246.81
2024-01-24T12:20:09.871Z,102240.13
2024-01-24T12:22:38.225Z,102246.03
2024-01-24T12:25:08.447Z,102258.47
2024-01-24T12:27:35.935Z,102263.75
2024-01-24T12:30:04.107Z,102273.06
2024-01-24T12:32:31.137Z,102277.78
2024-01-24T12:35:00.699Z,102292.56
2024-01-24T12:37:28.825Z,102290.94
2024-01-24T12:39:56.373Z,102301.13
2024-01-24T12:42:24.420Z,102297.06
2024-01-24T12:44:55.053Z,102303.81
2024-01-24T12:47:23.307Z,102299.97
2024-01-24T12:49:50.554Z,102293.63
2024-01-24T12:52:18.388Z,102294.03
2024-01-24T12:54:45.682Z,102313.91
2024-01-24T12:57:12.829Z,102315.41
2024-01-24T12:59:39.877Z,102335.53
2024-01-24T13:02:07.139Z,102323.34
2024-01-24T13:04:34.602Z,102316.03
2024-01-24T13:07:01.961Z,102308.25
2024-01-24T13:09:31.429Z,102319.69
2024-01-24T13:12:02.112Z,102333.75
2024-01-24T13:14:29.965Z,102326.69
2024-01-24T13:16:57.107Z,102321.94
2024-01-24T13:19:25.482Z,102321.59
2024-01-24T13:21:52.592Z,102333.84
2024-01-24T13:24:19.697Z,102338.69
2024-01-24T13:26:47.111Z,102348.63
2024-01-24T13:29:14.215Z,102354.44
2024-01-24T13:31:41.193Z,102357.03
2024-01-24T13:34:08.471Z,102364.44
2024-01-24T13:36:35.947Z,102353.41
2024-01-24T13:39:03.024Z,102348.03
2024-01-24T13:41:30.092Z,102373.28
2024-01-24T13:43:57.038Z,102372.34
2024-01-24T13:46:25.824Z,102377.91
2024-01-24T13:48:53.606Z,102372.28
2024-01-24T13:51:26.996Z,102376.91
2024-01-24T13:53:58.580Z,102375.28
2024-01-24T13:56:25.821Z,102396.53
2024-01-24T13:58:53.393Z,102380.91
2024-01-24T14:01:20.587Z,102380.84
2024-01-24T14:03:49.103Z,102384.78
2024-01-24T14:06:18.828Z,102379.13
2024-01-24T14:08:47.192Z,102373.66
2024-01-24T14:11:15.185Z,102379.13
2024-01-24T14:13:42.482Z,102384.41
2024-01-24T14:16:09.665Z,102403.72
2024-01-24T14:18:36.801Z,102402.53
2024-01-24T14:21:04.293Z,102409.81
2024-01-24T14:23:31.253Z,102421.44
2024-01-24T14:25:58.298Z,102410.78
2024-01-24T14:28:26.385Z,102426.22
2024-01-24T14:30:53.585Z,102419.38
2024-01-24T14:33:27.336Z,102423.59
2024-01-24T14:36:00.891Z,102419.56
2024-01-24T14:38:27.883Z,102414.66
2024-01-24T14:40:54.839Z,102428.84
2024-01-24T14:43:21.835Z,102429.91
2024-01-24T14:45:48.928Z,102438.47
2024-01-24T14:48:16.137Z,102435.72
2024-01-24T14:50:44.201Z,102432.81
2024-01-24T14:53:11.226Z,102431.75
2024-01-24T14:55:38.364Z,102432.00
2024-01-24T14:58:06.188Z,102441.78
2024-01-24T15:00:33.356Z,102447.94
2024-01-24T15:03:00.853Z,102453.44
2024-01-24T15:05:27.848Z,102443.22
2024-01-24T15:07:55.501Z,102436.91
2024-01-24T15:10:23.528Z,102434.13
2024-01-24T15:12:50.729Z,102441.34
2024-01-24T15:15:18.042Z,102453.59
2024-01-24T15:17:45.178Z,102458.16
2024-01-24T15:20:12.619Z,102466.28
2024-01-24T15:22:41.831Z,102476.94
2024-01-24T15:25:10.139Z,102474.47
2024-01-24T15:27:37.358Z,102484.25
2024-01-24T15:30:06.108Z,102477.13
2024-01-24T15:32:34.468Z,102480.84
2024-01-24T15:35:01.808Z,102485.94
2024-01-24T15:37:28.874Z,102490.28
2024-01-24T15:39:57.065Z,102499.38
2024-01-24T15:42:27.486Z,102501.06
2024-01-24T15:44:54.765Z,102488.75
2024-01-24T15:47:21.792Z,102478.78
2024-01-24T15:49:49.309Z,102492.16
2024-01-24T15:52:18.759Z,102498.06
2024-01-24T15:54:47.233Z,102506.75
2024-01-24T15:57:14.287Z,102504.09
2024-01-24T15:59:41.329Z,102502.53
2024-01-24T16:02:08.838Z,102500.94
2024-01-24T16:04:38.211Z,102510.53
2024-01-24T16:07:05.587Z,102524.97
2024-01-24T16:09:32.837Z,102518.06
2024-01-24T16:12:00.235Z,102533.50
2024-01-24T16:14:28.869Z,102537.72
2024-01-24T16:16:58.148Z,102550.59
2024-01-24T16:19:25.728Z,102558.47
2024-01-24T16:21:54.513Z,102564.69
2024-01-24T16:24:22.131Z,102565.44
2024-01-24T16:26:49.297Z,102555.69
2024-01-24T16:29:16.476Z,102575.69
2024-01-24T16:31:43.574Z,102577.19
2024-01-24T16:34:11.230Z,102578.97
2024-01-24T16:36:38.681Z,102572.47
2024-01-24T16:39:05.782Z,102574.97
2024-01-24T16:41:33.094Z,102573.03
2024-01-24T16:44:00.061Z,102578.28
2024-01-24T16:46:27.609Z,102585.19
2024-01-24T16:48:56.616Z,102580.38
2024-01-24T16:51:23.982Z,102564.94
2024-01-24T16:53:51.176Z,102582.41
2024-01-24T16:56:18.116Z,102576.63
2024-01-24T16:58:45.062Z,102581.88
2024-01-24T17:01:12.425Z,102592.31
2024-01-24T17:03:39.579Z,102599.16
2024-01-24T17:06:08.847Z,102595.56
2024-01-24T17:08:36.363Z,102595.47
2024-01-24T17:11:03.610Z,102603.28
2024-01-24T17:13:30.648Z,102603.38
2024-01-24T17:16:00.296Z,102612.97
2024-01-24T17:18:27.747Z,102607.72
2024-01-24T17:20:57.198Z,102616.44
2024-01-24T17:23:26.356Z,102638.50
2024-01-24T17:25:53.353Z,102643.59
2024-01-24T17:28:20.361Z,102654.09
2024-01-24T17:30:48.745Z,102660.19
2024-01-24T17:33:16.185Z,102662.63
2024-01-24T17:35:44.153Z,102662.47
2024-01-24T17:38:11.475Z,102666.53
2024-01-24T17:40:38.517Z,102660.31
2024-01-24T17:43:05.855Z,102663.91
2024-01-24T17:45:33.089Z,102661.00
2024-01-24T17:48:00.316Z,102657.91
2024-01-24T17:50:27.320Z,102659.63
2024-01-24T17:52:54.594Z,102654.53
2024-01-24T17:55:22.071Z,102662.41
2024-01-24T17:57:49.199Z,102653.47
2024-01-24T18:00:16.910Z,102663.09
2024-01-24T18:02:44.127Z,102656.03
2024-01-24T18:05:11.386Z,102645.25
2024-01-24T18:07:39.240Z,102649.59
2024-01-24T18:10:07.191Z,102633.97
2024-01-24T18:12:34.208Z,102637.34
2024-01-24T18:15:01.180Z,102636.47
2024-01-24T18:17:28.373Z,102639.31
2024-01-24T18:19:56.201Z,102647.72
2024-01-24T18:22:23.810Z,102645.75
2024-01-24T18:24:50.962Z,102650.03
2024-01-24T18:27:18.410Z,102643.63
2024-01-24T18:29:45.889Z,102633.81
2024-01-24T18:32:14.546Z,102637.88
2024-01-24T18:34:42.385Z,102629.09
2024-01-24T18:37:09.575Z,102635.31
2024-01-24T18:39:36.667Z,102632.28
2024-01-24T18:42:03.937Z,102626.81
2024-01-24T18:44:31.146Z,102629.16
2024-01-24T18:46:58.246Z,102642.97
2024-01-24T18:49:25.994Z,102655.25
2024-01-24T18:51:53.159Z,102654.03
2024-01-24T18:54:20.256Z,102671.28
2024-01-24T18:56:47.385Z,102672.09
2024-01-24T18:59:14.739Z,102668.50
2024-01-24T19:01:42.116Z,102676.38
2024-01-24T19:04:09.502Z,102679.16
2024-01-24T19:06:37.175Z,102682.84
2024-01-24T19:09:04.320Z,102676.69
2024-01-24T19:11:31.733Z,102666.34
2024-01-24T19:13:59.094Z,102680.44
2024-01-24T19:16:26.782Z,102700.63
2024-01-24T19:18:54.124Z,102691.16
2024-01-24T19:21:21.218Z,102687.34
2024-01-24T19:23:48.227Z,102676.84
2024-01-24T19:26:15.299Z,102677.81
2024-01-24T19:28:42.515Z,102684.94
2024-01-24T19:31:09.679Z,102683.06
2024-01-24T19:33:36.800Z,102675.19
2024-01-24T19:36:04.545Z,102680.69
2024-01-24T19:38:31.661Z,102688.31
2024-01-24T19:40:59.290Z,102690.44
2024-01-24T19:43:26.346Z,102687.16
2024-01-24T19:45:53.449Z,102698.56
2024-01-24T19:48:20.494Z,102696.75
2024-01-24T19:50:47.682Z,102708.31
2024-01-24T19:53:17.808Z,102723.91
2024-01-24T19:55:51.514Z,102714.25
2024-01-24T19:58:20.380Z,102720.31
2024-01-24T20:00:47.565Z,102721.97
2024-01-24T20:03:17.435Z,102717.44
2024-01-24T20:05:44.650Z,102722.28
2024-01-24T20:08:11.869Z,102721.44
2024-01-24T20:10:38.901Z,102720.38
2024-01-24T20:13:05.993Z,102713.50
2024-01-24T20:15:33.161Z,102714.56
2024-01-24T20:18:00.509Z,102696.34
2024-01-24T20:20:27.729Z,102695.22
2024-01-24T20:22:54.737Z,102695.94
2024-01-24T20:25:21.869Z,102703.75
2024-01-24T20:27:49.716Z,102698.50
2024-01-24T20:30:17.019Z,102700.53
2024-01-24T20:32:52.842Z,102706.38
2024-01-24T20:35:24.801Z,102709.66
2024-01-24T20:37:51.952Z,102710.31
2024-01-24T20:40:19.000Z,102703.44
2024-01-24T20:42:46.135Z,102709.41
2024-01-24T20:45:13.242Z,102701.78
2024-01-24T20:47:40.351Z,102710.31
2024-01-24T20:50:08.279Z,102705.22
2024-01-24T20:52:35.231Z,102710.31
2024-01-24T20:55:02.479Z,102711.22
2024-01-24T20:57:30.270Z,102714.66
2024-01-24T20:59:57.496Z,102729.44
2024-01-24T21:02:24.611Z,102733.34
2024-01-24T21:04:52.051Z,102735.13
2024-01-24T21:07:19.372Z,102732.44
2024-01-24T21:09:46.548Z,102742.03
2024-01-24T21:12:13.553Z,102745.41
2024-01-24T21:14:40.713Z,102741.78
2024-01-24T21:17:07.682Z,102744.56
2024-01-24T21:19:34.859Z,102740.16
2024-01-24T21:22:02.042Z,102735.56
2024-01-24T21:24:29.183Z,102739.25
2024-01-24T21:26:56.224Z,102740.63
2024-01-24T21:29:23.176Z,102743.44
2024-01-24T21:31:50.145Z,102747.69
2024-01-24T21:34:18.313Z,102751.22
2024-01-24T21:36:48.487Z,102744.25
2024-01-24T21:39:17.397Z,102757.13
2024-01-24T21:41:44.405Z,102747.53
2024-01-24T21:44:11.354Z,102764.00
2024-01-24T21:46:38.383Z,102752.44
2024-01-24T21:49:05.684Z,102750.66
2024-01-24T21:51:32.719Z,102743.03
2024-01-24T21:53:59.673Z,102746.38
2024-01-24T21:56:26.608Z,102742.94
2024-01-24T21:58:56.316Z,102763.91
2024-01-24T22:01:24.339Z,102785.06
2024-01-24T22:03:52.095Z,102778.66
2024-01-24T22:06:19.344Z,102772.41
2024-01-24T22:08:46.411Z,102760.31
2024-01-24T22:11:15.408Z,102759.66
2024-01-24T22:13:42.611Z,102772.69
2024-01-24T22:16:09.774Z,102766.38
2024-01-24T22:18:41.227Z,102770.53
2024-01-24T22:21:14.728Z,102770.19
2024-01-24T22:23:41.718Z,102770.44
2024-01-24T22:26:08.702Z,102774.88
2024-01-24T22:28:35.764Z,102771.25
2024-01-24T22:31:02.853Z,102765.84
2024-01-24T22:33:30.092Z,102785.19
2024-01-24T22:35:57.297Z,102785.19
2024-01-24T22:38:25.020Z,102782.56
2024-01-24T22:40:53.732Z,102784.53
2024-01-24T22:43:20.817Z,102787.06
2024-01-24T22:45:47.977Z,102787.88
2024-01-24T22:48:17.668Z,102785.03
2024-01-24T22:50:44.781Z,102780.94
2024-01-24T22:53:11.797Z,102784.13
2024-01-24T22:55:38.781Z,102798.94
2024-01-24T22:58:05.884Z,102796.41
2024-01-24T23:00:32.986Z,102801.66
2024-01-24T23:03:00.145Z,102794.59
2024-01-24T23:05:27.170Z,102787.47
2024-01-24T23:07:54.386Z,102799.59
2024-01-24T23:10:21.704Z,102803.03
2024-01-24T23:12:49.073Z,102799.69
2024-01-24T23:15:16.056Z,102805.56
2024-01-24T23:17:43.205Z,102817.69
2024-01-24T23:20:11.054Z,102823.03
2024-01-24T23:22:38.092Z,102815.06
2024-01-24T23:25:06.459Z,102812.38
2024-01-24T23:27:33.525Z,102822.84
2024-01-24T23:30:00.491Z,102829.81
2024-01-24T23:32:28.191Z,102834.97
2024-01-24T23:34:55.545Z,102828.91
2024-01-24T23:37:22.761Z,102837.59
2024-01-24T23:39:49.807Z,102839.94
2024-01-24T23:42:17.334Z,102842.38
2024-01-24T23:44:44.352Z,102858.09
2024-01-24T23:47:11.342Z,102858.19
2024-01-24T23:49:39.233Z,102850.16
2024-01-24T23:52:07.051Z,102838.75
2024-01-24T23:54:34.241Z,102844.56
2024-01-24T23:57:01.273Z,102843.47
2024-01-24T23:59:28.285Z,102860.03
